sensor_id;sensor_type;location;lat;lon;timestamp;P1;durP1;ratioP1;P2;durP2;ratioP2
27275;SDS011;14772;47.398;8.080;2022-09-14T00:00:56;13.37;;;4.27;;
27275;SDS011;14772;47.398;8.080;2022-09-14T00:05:53;12.90;;;5.03;;
27275;SDS011;14772;47.398;8.080;2022-09-14T00:10:50;15.07;;;4.63;;
27275;SDS011;14772;47.398;8.080;2022-09-14T00:15:47;13.83;;;4.50;;
27275;SDS011;14772;47.398;8.080;2022-09-14T00:20:44;13.47;;;4.63;;
27275;SDS011;14772;47.398;8.080;2022-09-14T00:25:42;12.13;;;4.43;;
27275;SDS011;14772;47.398;8.080;2022-09-14T00:30:40;12.07;;;4.93;;
27275;SDS011;14772;47.398;8.080;2022-09-14T00:35:38;13.30;;;4.60;;
27275;SDS011;14772;47.398;8.080;2022-09-14T00:40:35;12.00;;;4.83;;
27275;SDS011;14772;47.398;8.080;2022-09-14T00:45:32;12.00;;;4.80;;
27275;SDS011;14772;47.398;8.080;2022-09-14T00:50:30;11.67;;;4.80;;
27275;SDS011;14772;47.398;8.080;2022-09-14T00:55:27;12.87;;;5.17;;
27275;SDS011;14772;47.398;8.080;2022-09-14T01:00:25;12.83;;;5.07;;
27275;SDS011;14772;47.398;8.080;2022-09-14T01:05:26;12.00;;;5.20;;
27275;SDS011;14772;47.398;8.080;2022-09-14T01:10:30;12.70;;;4.97;;
27275;SDS011;14772;47.398;8.080;2022-09-14T01:15:33;12.50;;;5.00;;
27275;SDS011;14772;47.398;8.080;2022-09-14T01:20:33;11.77;;;4.53;;
27275;SDS011;14772;47.398;8.080;2022-09-14T01:25:36;11.77;;;4.73;;
27275;SDS011;14772;47.398;8.080;2022-09-14T01:30:43;11.50;;;4.80;;
27275;SDS011;14772;47.398;8.080;2022-09-14T01:35:41;13.40;;;5.30;;
27275;SDS011;14772;47.398;8.080;2022-09-14T01:40:42;13.47;;;4.97;;
27275;SDS011;14772;47.398;8.080;2022-09-14T01:45:42;10.90;;;4.80;;
27275;SDS011;14772;47.398;8.080;2022-09-14T01:50:42;13.10;;;5.00;;
27275;SDS011;14772;47.398;8.080;2022-09-14T01:55:42;16.17;;;5.57;;
27275;SDS011;14772;47.398;8.080;2022-09-14T02:00:42;10.90;;;4.70;;
27275;SDS011;14772;47.398;8.080;2022-09-14T02:05:43;13.70;;;5.30;;
27275;SDS011;14772;47.398;8.080;2022-09-14T02:10:43;11.27;;;4.67;;
27275;SDS011;14772;47.398;8.080;2022-09-14T02:15:40;13.23;;;5.20;;
27275;SDS011;14772;47.398;8.080;2022-09-14T02:20:38;14.17;;;4.93;;
27275;SDS011;14772;47.398;8.080;2022-09-14T02:25:38;12.57;;;4.80;;
27275;SDS011;14772;47.398;8.080;2022-09-14T02:30:38;13.83;;;5.10;;
27275;SDS011;14772;47.398;8.080;2022-09-14T02:35:38;12.13;;;5.00;;
27275;SDS011;14772;47.398;8.080;2022-09-14T02:40:41;15.63;;;5.23;;
27275;SDS011;14772;47.398;8.080;2022-09-14T02:45:41;13.30;;;5.17;;
27275;SDS011;14772;47.398;8.080;2022-09-14T02:50:43;11.83;;;4.60;;
27275;SDS011;14772;47.398;8.080;2022-09-14T02:55:44;11.30;;;4.73;;
27275;SDS011;14772;47.398;8.080;2022-09-14T03:00:44;12.43;;;4.77;;
27275;SDS011;14772;47.398;8.080;2022-09-14T03:05:43;11.80;;;4.70;;
27275;SDS011;14772;47.398;8.080;2022-09-14T03:10:41;11.77;;;4.73;;
27275;SDS011;14772;47.398;8.080;2022-09-14T03:15:39;11.20;;;4.87;;
27275;SDS011;14772;47.398;8.080;2022-09-14T03:20:36;12.27;;;4.60;;
27275;SDS011;14772;47.398;8.080;2022-09-14T03:25:35;11.73;;;4.80;;
27275;SDS011;14772;47.398;8.080;2022-09-14T03:30:33;13.23;;;4.90;;
27275;SDS011;14772;47.398;8.080;2022-09-14T03:35:31;11.50;;;4.70;;
27275;SDS011;14772;47.398;8.080;2022-09-14T03:40:28;12.10;;;4.67;;
27275;SDS011;14772;47.398;8.080;2022-09-14T03:45:25;14.07;;;4.90;;
27275;SDS011;14772;47.398;8.080;2022-09-14T03:50:22;13.07;;;4.97;;
27275;SDS011;14772;47.398;8.080;2022-09-14T03:55:20;13.37;;;4.90;;
27275;SDS011;14772;47.398;8.080;2022-09-14T04:00:17;12.53;;;4.93;;
27275;SDS011;14772;47.398;8.080;2022-09-14T04:05:14;13.37;;;5.47;;
27275;SDS011;14772;47.398;8.080;2022-09-14T04:10:11;12.70;;;5.00;;
27275;SDS011;14772;47.398;8.080;2022-09-14T04:15:09;14.93;;;4.70;;
27275;SDS011;14772;47.398;8.080;2022-09-14T04:20:07;13.20;;;5.17;;
27275;SDS011;14772;47.398;8.080;2022-09-14T04:25:05;10.97;;;4.87;;
27275;SDS011;14772;47.398;8.080;2022-09-14T04:30:04;11.40;;;4.63;;
27275;SDS011;14772;47.398;8.080;2022-09-14T04:35:03;12.50;;;4.90;;
27275;SDS011;14772;47.398;8.080;2022-09-14T04:40:00;13.47;;;5.00;;
27275;SDS011;14772;47.398;8.080;2022-09-14T04:44:58;11.80;;;4.70;;
27275;SDS011;14772;47.398;8.080;2022-09-14T04:49:55;19.63;;;4.83;;
27275;SDS011;14772;47.398;8.080;2022-09-14T04:54:52;12.20;;;4.90;;
27275;SDS011;14772;47.398;8.080;2022-09-14T04:59:49;14.20;;;4.93;;
27275;SDS011;14772;47.398;8.080;2022-09-14T05:04:46;14.63;;;6.47;;
27275;SDS011;14772;47.398;8.080;2022-09-14T05:09:44;19.13;;;7.07;;
27275;SDS011;14772;47.398;8.080;2022-09-14T05:14:41;14.73;;;5.43;;
27275;SDS011;14772;47.398;8.080;2022-09-14T05:19:39;14.87;;;6.00;;
27275;SDS011;14772;47.398;8.080;2022-09-14T05:24:36;15.77;;;5.43;;
27275;SDS011;14772;47.398;8.080;2022-09-14T05:29:33;15.10;;;5.77;;
27275;SDS011;14772;47.398;8.080;2022-09-14T05:34:30;17.43;;;5.60;;
27275;SDS011;14772;47.398;8.080;2022-09-14T05:39:28;17.73;;;5.40;;
27275;SDS011;14772;47.398;8.080;2022-09-14T05:44:25;14.37;;;5.47;;
27275;SDS011;14772;47.398;8.080;2022-09-14T05:49:22;17.90;;;5.60;;
27275;SDS011;14772;47.398;8.080;2022-09-14T05:54:19;14.03;;;5.53;;
27275;SDS011;14772;47.398;8.080;2022-09-14T05:59:16;13.43;;;5.27;;
27275;SDS011;14772;47.398;8.080;2022-09-14T06:04:15;13.70;;;5.00;;
27275;SDS011;14772;47.398;8.080;2022-09-14T06:09:12;14.47;;;5.40;;
27275;SDS011;14772;47.398;8.080;2022-09-14T06:14:09;14.53;;;5.17;;
27275;SDS011;14772;47.398;8.080;2022-09-14T06:19:07;12.77;;;5.07;;
27275;SDS011;14772;47.398;8.080;2022-09-14T06:24:05;15.27;;;5.30;;
27275;SDS011;14772;47.398;8.080;2022-09-14T06:29:02;14.93;;;5.27;;
27275;SDS011;14772;47.398;8.080;2022-09-14T06:34:00;14.07;;;5.40;;
27275;SDS011;14772;47.398;8.080;2022-09-14T06:38:58;15.70;;;5.10;;
27275;SDS011;14772;47.398;8.080;2022-09-14T06:43:56;14.70;;;4.80;;
27275;SDS011;14772;47.398;8.080;2022-09-14T06:48:55;13.13;;;4.90;;
27275;SDS011;14772;47.398;8.080;2022-09-14T06:53:54;15.73;;;5.00;;
27275;SDS011;14772;47.398;8.080;2022-09-14T06:58:52;14.73;;;4.70;;
27275;SDS011;14772;47.398;8.080;2022-09-14T07:03:50;12.17;;;4.80;;
27275;SDS011;14772;47.398;8.080;2022-09-14T07:08:47;17.47;;;5.00;;
27275;SDS011;14772;47.398;8.080;2022-09-14T07:13:45;14.03;;;4.80;;
27275;SDS011;14772;47.398;8.080;2022-09-14T07:18:43;14.23;;;4.90;;
27275;SDS011;14772;47.398;8.080;2022-09-14T07:23:40;14.30;;;4.97;;
27275;SDS011;14772;47.398;8.080;2022-09-14T07:28:40;14.37;;;5.20;;
27275;SDS011;14772;47.398;8.080;2022-09-14T07:33:38;14.13;;;4.20;;
27275;SDS011;14772;47.398;8.080;2022-09-14T07:38:35;11.70;;;4.00;;
27275;SDS011;14772;47.398;8.080;2022-09-14T07:43:33;12.47;;;4.33;;
27275;SDS011;14772;47.398;8.080;2022-09-14T07:48:30;14.13;;;4.70;;
27275;SDS011;14772;47.398;8.080;2022-09-14T07:53:28;16.63;;;5.23;;
27275;SDS011;14772;47.398;8.080;2022-09-14T07:58:25;14.53;;;4.60;;
27275;SDS011;14772;47.398;8.080;2022-09-14T08:03:23;11.13;;;4.33;;
27275;SDS011;14772;47.398;8.080;2022-09-14T08:08:20;12.90;;;4.10;;
27275;SDS011;14772;47.398;8.080;2022-09-14T08:13:18;14.63;;;4.37;;
27275;SDS011;14772;47.398;8.080;2022-09-14T08:18:15;11.33;;;3.90;;
27275;SDS011;14772;47.398;8.080;2022-09-14T08:23:12;13.10;;;3.63;;
27275;SDS011;14772;47.398;8.080;2022-09-14T08:28:09;12.10;;;3.73;;
27275;SDS011;14772;47.398;8.080;2022-09-14T08:33:07;12.17;;;3.40;;
27275;SDS011;14772;47.398;8.080;2022-09-14T08:38:04;12.63;;;3.40;;
27275;SDS011;14772;47.398;8.080;2022-09-14T08:43:01;11.30;;;3.47;;
27275;SDS011;14772;47.398;8.080;2022-09-14T08:47:59;11.60;;;3.83;;
27275;SDS011;14772;47.398;8.080;2022-09-14T08:52:57;12.13;;;3.40;;
27275;SDS011;14772;47.398;8.080;2022-09-14T08:57:57;12.70;;;3.37;;
27275;SDS011;14772;47.398;8.080;2022-09-14T09:03:04;14.37;;;3.83;;
27275;SDS011;14772;47.398;8.080;2022-09-14T09:08:16;13.47;;;3.20;;
27275;SDS011;14772;47.398;8.080;2022-09-14T09:13:19;14.07;;;3.63;;
27275;SDS011;14772;47.398;8.080;2022-09-14T09:18:18;15.03;;;3.50;;
27275;SDS011;14772;47.398;8.080;2022-09-14T09:23:19;11.53;;;3.53;;
27275;SDS011;14772;47.398;8.080;2022-09-14T09:28:17;10.47;;;3.40;;
27275;SDS011;14772;47.398;8.080;2022-09-14T09:33:16;15.80;;;3.90;;
27275;SDS011;14772;47.398;8.080;2022-09-14T09:38:16;11.43;;;3.00;;
27275;SDS011;14772;47.398;8.080;2022-09-14T09:43:15;12.10;;;3.23;;
27275;SDS011;14772;47.398;8.080;2022-09-14T09:48:14;14.67;;;3.13;;
27275;SDS011;14772;47.398;8.080;2022-09-14T09:53:14;9.87;;;3.10;;
27275;SDS011;14772;47.398;8.080;2022-09-14T09:58:20;11.27;;;2.70;;
27275;SDS011;14772;47.398;8.080;2022-09-14T10:03:26;15.10;;;2.97;;
27275;SDS011;14772;47.398;8.080;2022-09-14T10:08:26;14.30;;;3.20;;
27275;SDS011;14772;47.398;8.080;2022-09-14T10:13:26;14.30;;;2.67;;
27275;SDS011;14772;47.398;8.080;2022-09-14T10:18:24;11.23;;;2.80;;
27275;SDS011;14772;47.398;8.080;2022-09-14T10:23:23;11.97;;;2.53;;
27275;SDS011;14772;47.398;8.080;2022-09-14T10:28:23;8.73;;;2.30;;
27275;SDS011;14772;47.398;8.080;2022-09-14T10:33:22;9.27;;;2.40;;
27275;SDS011;14772;47.398;8.080;2022-09-14T10:38:26;10.07;;;2.40;;
27275;SDS011;14772;47.398;8.080;2022-09-14T10:43:30;10.57;;;2.60;;
27275;SDS011;14772;47.398;8.080;2022-09-14T10:48:46;11.83;;;2.13;;
27275;SDS011;14772;47.398;8.080;2022-09-14T10:53:53;9.83;;;2.30;;
27275;SDS011;14772;47.398;8.080;2022-09-14T11:04:47;10.60;;;2.40;;
27275;SDS011;14772;47.398;8.080;2022-09-14T11:09:51;11.50;;;2.57;;
27275;SDS011;14772;47.398;8.080;2022-09-14T11:14:54;12.30;;;2.30;;
27275;SDS011;14772;47.398;8.080;2022-09-14T11:19:58;13.00;;;2.80;;
27275;SDS011;14772;47.398;8.080;2022-09-14T11:24:58;11.93;;;2.60;;
27275;SDS011;14772;47.398;8.080;2022-09-14T11:30:00;11.67;;;2.60;;
27275;SDS011;14772;47.398;8.080;2022-09-14T11:35:00;14.30;;;2.90;;
27275;SDS011;14772;47.398;8.080;2022-09-14T11:40:02;14.23;;;2.60;;
27275;SDS011;14772;47.398;8.080;2022-09-14T11:45:06;10.73;;;2.70;;
27275;SDS011;14772;47.398;8.080;2022-09-14T11:50:13;12.47;;;2.63;;
27275;SDS011;14772;47.398;8.080;2022-09-14T11:55:15;12.03;;;2.67;;
27275;SDS011;14772;47.398;8.080;2022-09-14T12:05:48;13.00;;;3.00;;
27275;SDS011;14772;47.398;8.080;2022-09-14T12:10:58;12.63;;;2.70;;
27275;SDS011;14772;47.398;8.080;2022-09-14T12:16:01;17.47;;;2.83;;
27275;SDS011;14772;47.398;8.080;2022-09-14T12:21:01;13.63;;;2.60;;
27275;SDS011;14772;47.398;8.080;2022-09-14T12:26:00;10.77;;;2.40;;
27275;SDS011;14772;47.398;8.080;2022-09-14T12:31:31;9.50;;;2.50;;
27275;SDS011;14772;47.398;8.080;2022-09-14T12:42:24;8.67;;;2.40;;
27275;SDS011;14772;47.398;8.080;2022-09-14T12:53:05;11.83;;;2.90;;
27275;SDS011;14772;47.398;8.080;2022-09-14T12:58:25;10.70;;;3.13;;
27275;SDS011;14772;47.398;8.080;2022-09-14T13:03:47;14.33;;;2.83;;
27275;SDS011;14772;47.398;8.080;2022-09-14T13:08:46;9.47;;;2.70;;
27275;SDS011;14772;47.398;8.080;2022-09-14T13:13:45;10.97;;;3.13;;
27275;SDS011;14772;47.398;8.080;2022-09-14T13:18:44;13.73;;;3.10;;
27275;SDS011;14772;47.398;8.080;2022-09-14T13:23:41;14.70;;;3.10;;
27275;SDS011;14772;47.398;8.080;2022-09-14T13:28:39;11.97;;;3.20;;
27275;SDS011;14772;47.398;8.080;2022-09-14T13:33:39;11.33;;;3.13;;
27275;SDS011;14772;47.398;8.080;2022-09-14T13:38:42;13.17;;;3.33;;
27275;SDS011;14772;47.398;8.080;2022-09-14T13:43:40;12.50;;;3.37;;
27275;SDS011;14772;47.398;8.080;2022-09-14T13:48:39;11.83;;;3.43;;
27275;SDS011;14772;47.398;8.080;2022-09-14T13:53:42;8.93;;;2.83;;
27275;SDS011;14772;47.398;8.080;2022-09-14T13:58:41;12.00;;;3.13;;
27275;SDS011;14772;47.398;8.080;2022-09-14T14:03:38;12.47;;;2.97;;
27275;SDS011;14772;47.398;8.080;2022-09-14T14:08:37;14.53;;;3.30;;
27275;SDS011;14772;47.398;8.080;2022-09-14T14:13:35;11.40;;;3.33;;
27275;SDS011;14772;47.398;8.080;2022-09-14T14:18:38;11.90;;;3.00;;
27275;SDS011;14772;47.398;8.080;2022-09-14T14:23:37;8.93;;;2.93;;
27275;SDS011;14772;47.398;8.080;2022-09-14T14:28:35;9.87;;;2.97;;
27275;SDS011;14772;47.398;8.080;2022-09-14T14:33:33;11.47;;;2.90;;
27275;SDS011;14772;47.398;8.080;2022-09-14T14:38:31;9.33;;;2.70;;
27275;SDS011;14772;47.398;8.080;2022-09-14T14:43:28;11.43;;;2.67;;
27275;SDS011;14772;47.398;8.080;2022-09-14T14:48:26;9.00;;;2.70;;
27275;SDS011;14772;47.398;8.080;2022-09-14T14:53:23;9.87;;;2.63;;
27275;SDS011;14772;47.398;8.080;2022-09-14T14:58:21;6.80;;;2.20;;
27275;SDS011;14772;47.398;8.080;2022-09-14T15:03:19;7.87;;;2.23;;
27275;SDS011;14772;47.398;8.080;2022-09-14T15:08:17;11.43;;;2.20;;
27275;SDS011;14772;47.398;8.080;2022-09-14T15:13:14;7.93;;;2.10;;
27275;SDS011;14772;47.398;8.080;2022-09-14T15:18:11;7.53;;;2.00;;
27275;SDS011;14772;47.398;8.080;2022-09-14T15:23:09;6.30;;;2.10;;
27275;SDS011;14772;47.398;8.080;2022-09-14T15:28:08;9.83;;;2.13;;
27275;SDS011;14772;47.398;8.080;2022-09-14T15:33:05;9.07;;;2.40;;
27275;SDS011;14772;47.398;8.080;2022-09-14T15:38:02;9.30;;;2.37;;
27275;SDS011;14772;47.398;8.080;2022-09-14T15:43:00;10.60;;;2.27;;
27275;SDS011;14772;47.398;8.080;2022-09-14T15:47:57;8.23;;;2.23;;
27275;SDS011;14772;47.398;8.080;2022-09-14T15:52:54;9.53;;;2.33;;
27275;SDS011;14772;47.398;8.080;2022-09-14T15:57:51;7.07;;;2.20;;
27275;SDS011;14772;47.398;8.080;2022-09-14T16:02:49;9.50;;;2.37;;
27275;SDS011;14772;47.398;8.080;2022-09-14T16:07:47;9.93;;;2.50;;
27275;SDS011;14772;47.398;8.080;2022-09-14T16:12:48;11.27;;;3.00;;
27275;SDS011;14772;47.398;8.080;2022-09-14T16:17:48;9.13;;;2.50;;
27275;SDS011;14772;47.398;8.080;2022-09-14T16:22:46;9.43;;;2.27;;
27275;SDS011;14772;47.398;8.080;2022-09-14T16:27:44;9.17;;;2.13;;
27275;SDS011;14772;47.398;8.080;2022-09-14T16:32:41;8.27;;;2.40;;
27275;SDS011;14772;47.398;8.080;2022-09-14T16:37:38;10.80;;;2.20;;
27275;SDS011;14772;47.398;8.080;2022-09-14T16:42:35;8.23;;;2.20;;
27275;SDS011;14772;47.398;8.080;2022-09-14T16:47:32;11.63;;;3.00;;
27275;SDS011;14772;47.398;8.080;2022-09-14T16:52:29;8.17;;;2.53;;
27275;SDS011;14772;47.398;8.080;2022-09-14T16:57:27;11.53;;;2.53;;
27275;SDS011;14772;47.398;8.080;2022-09-14T17:02:24;12.60;;;2.80;;
27275;SDS011;14772;47.398;8.080;2022-09-14T17:07:21;10.40;;;3.00;;
27275;SDS011;14772;47.398;8.080;2022-09-14T17:12:18;11.77;;;2.90;;
27275;SDS011;14772;47.398;8.080;2022-09-14T17:17:15;11.57;;;3.00;;
27275;SDS011;14772;47.398;8.080;2022-09-14T17:22:13;7.87;;;2.43;;
27275;SDS011;14772;47.398;8.080;2022-09-14T17:27:10;15.00;;;2.90;;
27275;SDS011;14772;47.398;8.080;2022-09-14T17:32:08;9.80;;;2.70;;
27275;SDS011;14772;47.398;8.080;2022-09-14T17:37:05;10.83;;;3.20;;
27275;SDS011;14772;47.398;8.080;2022-09-14T17:42:02;14.20;;;3.20;;
27275;SDS011;14772;47.398;8.080;2022-09-14T17:47:00;12.58;;;3.90;;
27275;SDS011;14772;47.398;8.080;2022-09-14T17:51:57;12.65;;;3.05;;
27275;SDS011;14772;47.398;8.080;2022-09-14T17:56:54;9.80;;;2.70;;
27275;SDS011;14772;47.398;8.080;2022-09-14T18:01:51;9.13;;;2.63;;
27275;SDS011;14772;47.398;8.080;2022-09-14T18:06:52;13.43;;;2.87;;
27275;SDS011;14772;47.398;8.080;2022-09-14T18:11:50;10.07;;;2.67;;
27275;SDS011;14772;47.398;8.080;2022-09-14T18:16:50;7.63;;;2.50;;
27275;SDS011;14772;47.398;8.080;2022-09-14T18:21:47;9.17;;;2.47;;
27275;SDS011;14772;47.398;8.080;2022-09-14T18:26:44;9.47;;;2.63;;
27275;SDS011;14772;47.398;8.080;2022-09-14T18:31:42;10.90;;;3.07;;
27275;SDS011;14772;47.398;8.080;2022-09-14T18:36:39;12.07;;;3.50;;
27275;SDS011;14772;47.398;8.080;2022-09-14T18:41:36;11.17;;;3.47;;
27275;SDS011;14772;47.398;8.080;2022-09-14T18:46:33;10.40;;;3.30;;
27275;SDS011;14772;47.398;8.080;2022-09-14T18:51:31;11.73;;;3.50;;
27275;SDS011;14772;47.398;8.080;2022-09-14T18:56:29;13.23;;;4.23;;
27275;SDS011;14772;47.398;8.080;2022-09-14T19:01:27;10.87;;;3.40;;
27275;SDS011;14772;47.398;8.080;2022-09-14T19:06:24;10.37;;;3.20;;
27275;SDS011;14772;47.398;8.080;2022-09-14T19:11:22;12.03;;;3.23;;
27275;SDS011;14772;47.398;8.080;2022-09-14T19:16:20;13.23;;;3.60;;
27275;SDS011;14772;47.398;8.080;2022-09-14T19:21:18;13.00;;;3.53;;
27275;SDS011;14772;47.398;8.080;2022-09-14T19:26:17;12.67;;;3.50;;
27275;SDS011;14772;47.398;8.080;2022-09-14T19:31:15;10.70;;;3.17;;
27275;SDS011;14772;47.398;8.080;2022-09-14T19:36:14;8.97;;;2.70;;
27275;SDS011;14772;47.398;8.080;2022-09-14T19:41:13;9.83;;;2.70;;
27275;SDS011;14772;47.398;8.080;2022-09-14T19:46:11;9.97;;;2.97;;
27275;SDS011;14772;47.398;8.080;2022-09-14T19:51:11;9.83;;;2.50;;
27275;SDS011;14772;47.398;8.080;2022-09-14T19:56:11;9.70;;;2.80;;
27275;SDS011;14772;47.398;8.080;2022-09-14T20:01:09;10.77;;;2.53;;
27275;SDS011;14772;47.398;8.080;2022-09-14T20:06:07;8.27;;;2.40;;
27275;SDS011;14772;47.398;8.080;2022-09-14T20:11:06;8.90;;;2.27;;
27275;SDS011;14772;47.398;8.080;2022-09-14T20:16:08;8.77;;;2.50;;
27275;SDS011;14772;47.398;8.080;2022-09-14T20:21:07;11.00;;;2.80;;
27275;SDS011;14772;47.398;8.080;2022-09-14T20:26:06;10.97;;;2.80;;
27275;SDS011;14772;47.398;8.080;2022-09-14T20:31:05;9.50;;;3.00;;
27275;SDS011;14772;47.398;8.080;2022-09-14T20:36:06;9.93;;;2.80;;
27275;SDS011;14772;47.398;8.080;2022-09-14T20:41:05;10.47;;;2.70;;
27275;SDS011;14772;47.398;8.080;2022-09-14T20:46:04;7.80;;;2.30;;
27275;SDS011;14772;47.398;8.080;2022-09-14T20:51:03;6.67;;;2.20;;
27275;SDS011;14772;47.398;8.080;2022-09-14T20:56:01;9.07;;;2.37;;
27275;SDS011;14772;47.398;8.080;2022-09-14T21:01:00;7.40;;;2.30;;
27275;SDS011;14772;47.398;8.080;2022-09-14T21:05:59;9.03;;;2.70;;
27275;SDS011;14772;47.398;8.080;2022-09-14T21:10:58;9.77;;;2.83;;
27275;SDS011;14772;47.398;8.080;2022-09-14T21:16:00;7.67;;;2.30;;
27275;SDS011;14772;47.398;8.080;2022-09-14T21:21:03;9.67;;;2.20;;
27275;SDS011;14772;47.398;8.080;2022-09-14T21:26:01;7.87;;;2.50;;
27275;SDS011;14772;47.398;8.080;2022-09-14T21:31:03;7.73;;;2.20;;
27275;SDS011;14772;47.398;8.080;2022-09-14T21:36:03;10.80;;;2.37;;
27275;SDS011;14772;47.398;8.080;2022-09-14T21:41:04;7.13;;;2.50;;
27275;SDS011;14772;47.398;8.080;2022-09-14T21:46:02;8.00;;;2.40;;
27275;SDS011;14772;47.398;8.080;2022-09-14T21:51:01;7.53;;;2.40;;
27275;SDS011;14772;47.398;8.080;2022-09-14T21:56:01;8.63;;;2.40;;
27275;SDS011;14772;47.398;8.080;2022-09-14T22:01:00;9.00;;;2.40;;
27275;SDS011;14772;47.398;8.080;2022-09-14T22:05:58;9.53;;;2.50;;
27275;SDS011;14772;47.398;8.080;2022-09-14T22:11:00;9.47;;;2.47;;
27275;SDS011;14772;47.398;8.080;2022-09-14T22:16:01;6.07;;;2.20;;
27275;SDS011;14772;47.398;8.080;2022-09-14T22:21:01;7.13;;;2.20;;
27275;SDS011;14772;47.398;8.080;2022-09-14T22:26:03;7.23;;;2.33;;
27275;SDS011;14772;47.398;8.080;2022-09-14T22:31:01;8.70;;;2.13;;
27275;SDS011;14772;47.398;8.080;2022-09-14T22:35:59;7.43;;;2.30;;
27275;SDS011;14772;47.398;8.080;2022-09-14T22:40:58;6.97;;;2.40;;
27275;SDS011;14772;47.398;8.080;2022-09-14T22:45:57;9.50;;;2.50;;
27275;SDS011;14772;47.398;8.080;2022-09-14T22:50:55;9.90;;;2.27;;
27275;SDS011;14772;47.398;8.080;2022-09-14T22:55:53;5.90;;;2.30;;
27275;SDS011;14772;47.398;8.080;2022-09-14T23:00:51;6.57;;;2.20;;
27275;SDS011;14772;47.398;8.080;2022-09-14T23:05:48;6.27;;;2.00;;
27275;SDS011;14772;47.398;8.080;2022-09-14T23:10:47;4.37;;;1.80;;
27275;SDS011;14772;47.398;8.080;2022-09-14T23:15:44;5.87;;;1.90;;
27275;SDS011;14772;47.398;8.080;2022-09-14T23:20:42;7.50;;;2.00;;
27275;SDS011;14772;47.398;8.080;2022-09-14T23:25:39;10.30;;;2.10;;
27275;SDS011;14772;47.398;8.080;2022-09-14T23:30:37;6.87;;;1.90;;
27275;SDS011;14772;47.398;8.080;2022-09-14T23:35:34;7.30;;;2.10;;
27275;SDS011;14772;47.398;8.080;2022-09-14T23:40:31;7.03;;;2.10;;
27275;SDS011;14772;47.398;8.080;2022-09-14T23:45:29;6.83;;;2.10;;
27275;SDS011;14772;47.398;8.080;2022-09-14T23:50:26;6.23;;;1.93;;
27275;SDS011;14772;47.398;8.080;2022-09-14T23:55:23;6.67;;;2.07;;
